CW8926 Weather Reports


Display with metric or nautical units.
time (UTC)temp
F
wind
direction
speed
MPH
gust
MPH
rain 1hr
in
rain 24hr
in
rain mn
in
humidity
%
barometer
mb
20200702163837 79 123 2.0 8.0 0.00 0.00 0.00 22 1017.6
20200702163226 78 102 2.0 7.0 0.00 0.00 0.00 22 1017.6
20200702162629 77 138 3.0 7.0 0.00 0.00 0.00 23 1018.0
20200702162030 77 76 2.0 7.0 0.00 0.00 0.00 23 1018.0
20200702161417 77 150 1.0 5.0 0.00 0.00 0.00 25 1018.0
20200702160822 76 103 2.0 5.0 0.00 0.00 0.00 27 1017.6
20200702160226 75 87 2.0 5.0 0.00 0.00 0.00 26 1017.6
20200702155624 75 108 2.0 5.0 0.00 0.00 0.00 24 1017.7
20200702155012 75 109 2.0 5.0 0.00 0.00 0.00 26 1017.7
20200702154359 75 123 1.0 4.0 0.00 0.00 0.00 25 1018.1
20200702153809 74 109 2.0 4.0 0.00 0.00 0.00 28 1018.1
20200702153212 74 88 1.0 4.0 0.00 0.00 0.00 28 1018.1
20200702152550 73 92 1.0 4.0 0.00 0.00 0.00 28 1018.5
20200702151933 72 96 1.0 4.0 0.00 0.00 0.00 29 1018.5
20200702151326 72 107 1.0 5.0 0.00 0.00 0.00 30 1018.1
20200702150727 71 81 1.0 5.0 0.00 0.00 0.00 27 1018.1
20200702150122 71 76 1.0 5.0 0.00 0.00 0.00 30 1018.1
20200702145520 71 109 2.0 5.0 0.00 0.00 0.00 33 1018.0
20200702144916 70 111 2.0 5.0 0.00 0.00 0.00 29 1018.0
20200702144254 71 94 1.0 4.0 0.00 0.00 0.00 32 1018.5
20200702143705 70 93 1.0 4.0 0.00 0.00 0.00 31 1018.5
20200702143111 70 111 1.0 4.0 0.00 0.00 0.00 33 1018.5
20200702142523 70 111 0.0 3.0 0.00 0.00 0.00 32 1018.5
20200702141916 69 97 0.0 1.0 0.00 0.00 0.00 35 1018.5
20200702141326 68 97 0.0 1.0 0.00 0.00 0.00 36 1017.6
20200702140721 67 97 1.0 5.0 0.00 0.00 0.00 39 1017.6
20200702140124 67 99 2.0 5.0 0.00 0.00 0.00 36 1017.6
20200702135537 68 95 2.0 4.0 0.00 0.00 0.00 37 1017.4
20200702134917 67 110 2.0 6.0 0.00 0.00 0.00 37 1017.4
20200702134311 67 105 3.0 6.0 0.00 0.00 0.00 38 1017.5
20200702133653 68 92 3.0 6.0 0.00 0.00 0.00 37 1017.5
20200702133039 68 109 1.0 4.0 0.00 0.00 0.00 31 1017.5
20200702132435 68 113 1.0 3.0 0.00 0.00 0.00 30 1017.3
20200702131848 68 125 0.0 3.0 0.00 0.00 0.00 34 1017.3
20200702131249 68 145 1.0 3.0 0.00 0.00 0.00 32 1016.7
20200702130649 67 153 0.0 3.0 0.00 0.00 0.00 30 1016.7
20200702130053 67 248 0.0 0.0 0.00 0.00 0.00 27 1016.7
20200702125433 66 248 0.0 1.0 0.00 0.00 0.00 27 1016.7
20200702124817 66 293 0.0 0.0 0.00 0.00 0.00 28 1016.7
20200702124218 66 293 0.0 1.0 0.00 0.00 0.00 29 1016.5
20200702123559 66 293 0.0 0.0 0.00 0.00 0.00 28 1016.5
20200702122957 66 292 4.0 8.0 0.00 0.00 0.00 26 1016.5
20200702122347 66 287 6.0 8.0 0.00 0.00 0.00 26 1016.3
20200702121726 66 282 5.0 8.0 0.00 0.00 0.00 26 1016.3
20200702121126 65 248 3.0 5.0 0.00 0.00 0.00 28 1016.1
20200702120522 65 306 3.0 5.0 0.00 0.00 0.00 28 1016.1
20200702115900 65 273 1.0 4.0 0.00 0.00 0.00 28 1016.5
20200702115249 64 200 0.0 2.0 0.00 0.00 0.00 28 1016.5
20200702114636 64 200 0.0 0.0 0.00 0.00 0.00 28 1016.5
20200702114030 63 232 2.0 1.0 0.00 0.00 0.00 29 1016.4
20200702113413 63 281 2.0 4.0 0.00 0.00 0.00 30 1016.4
20200702112825 63 226 1.0 4.0 0.00 0.00 0.00 29 1016.6
20200702112205 62 94 1.0 3.0 0.00 0.00 0.00 30 1016.6
20200702111600 62 101 3.0 5.0 0.00 0.00 0.00 32 1016.6
20200702110945 63 67 2.0 5.0 0.00 0.00 0.00 32 1015.9
20200702110332 65 229 2.0 6.0 0.00 0.00 0.00 27 1015.9
20200702105717 62 319 2.0 6.0 0.00 0.00 0.00 30 1016.2
20200702105117 61 40 3.0 7.0 0.00 0.00 0.00 34 1016.2
20200702104456 62 250 4.0 7.0 0.00 0.00 0.00 32 1016.2
20200702103908 61 231 5.0 9.0 0.00 0.00 0.00 32 1016.2
20200702103319 61 228 5.0 9.0 0.00 0.00 0.00 32 1016.2
20200702102705 62 236 5.0 9.0 0.00 0.00 0.00 31 1015.4
20200702102052 64 235 4.0 7.0 0.00 0.00 0.00 29 1015.4
20200702101431 66 227 3.0 5.0 0.00 0.00 0.00 26 1015.4
20200702100823 64 252 3.0 5.0 0.00 0.00 0.00 27 1015.8
20200702100230 65 254 4.0 6.0 0.00 0.00 0.00 28 1015.8
20200702095612 65 243 3.0 6.0 0.00 0.00 0.00 28 1016.4
20200702095024 65 243 2.0 5.0 0.00 0.00 0.00 28 1016.4
20200702094422 64 243 1.0 5.0 0.00 0.00 0.00 28 1016.4
20200702093806 65 247 1.0 1.0 0.00 0.00 0.00 29 1016.1
20200702093214 64 247 2.0 6.0 0.00 0.00 0.00 27 1016.1
20200702092601 65 28 1.0 4.0 0.00 0.00 0.00 28 1015.8
20200702091957 65 28 0.0 4.0 0.00 0.00 0.00 27 1015.8
20200702091349 65 27 2.0 1.0 0.00 0.00 0.00 29 1015.5
20200702090737 66 31 2.0 5.0 0.00 0.00 0.00 28 1015.5
20200702090142 67 268 2.0 5.0 0.00 0.00 0.00 25 1015.5
20200702085537 66 261 2.0 5.0 0.00 0.00 0.00 27 1015.8
20200702084946 67 284 1.0 4.0 0.00 0.00 0.00 26 1015.8
20200702084327 67 284 1.0 4.0 0.00 0.00 0.00 26 1015.8
20200702083716 67 284 0.0 4.0 0.00 0.00 0.00 25 1015.8
20200702083125 67 286 0.0 0.0 0.00 0.00 0.00 25 1015.8
20200702082533 67 286 0.0 4.0 0.00 0.00 0.00 26 1015.8
20200702081934 67 286 0.0 1.0 0.00 0.00 0.00 25 1015.8
20200702081346 67 286 0.0 0.0 0.00 0.00 0.00 25 1015.8
20200702080757 67 286 0.0 3.0 0.00 0.00 0.00 25 1015.8
20200702080142 66 286 1.0 4.0 0.00 0.00 0.00 25 1015.8
20200702075535 67 286 1.0 4.0 0.00 0.00 0.00 26 1015.8
20200702074927 66 286 1.0 3.0 0.00 0.00 0.00 26 1015.8
20200702074310 67 286 0.0 3.0 0.00 0.00 0.00 27 1015.7
20200702073712 67 286 0.0 0.0 0.00 0.00 0.00 25 1015.7
20200702073119 67 286 1.0 3.0 0.00 0.00 0.00 27 1015.7
20200702072526 68 286 1.0 4.0 0.00 0.00 0.00 26 1015.4
20200702071913 69 259 0.0 2.0 0.00 0.00 0.00 25 1015.4
20200702071314 69 259 1.0 0.0 0.00 0.00 0.00 23 1015.8
20200702070709 69 259 2.0 4.0 0.00 0.00 0.00 23 1015.8
20200702070052 69 259 2.0 4.0 0.00 0.00 0.00 24 1015.8
20200702065438 69 259 1.0 4.0 0.00 0.00 0.00 25 1015.4
20200702064821 69 259 1.0 4.0 0.00 0.00 0.00 24 1015.4
20200702064219 69 259 0.0 4.0 0.00 0.00 0.00 25 1015.5
20200702063609 69 248 0.0 0.0 0.00 0.00 0.00 24 1015.5
20200702062951 69 198 0.0 6.0 0.00 0.00 0.00 24 1015.5
20200702062347 70 144 1.0 6.0 0.00 0.00 0.00 24 1015.5
20200702061724 69 140 1.0 6.0 0.00 0.00 0.00 25 1015.5
20200702061130 68 126 2.0 6.0 0.00 0.00 0.00 26 1015.8
20200702060536 68 45 1.0 5.0 0.00 0.00 0.00 26 1015.8
20200702055937 68 61 0.0 3.0 0.00 0.00 0.00 26 1015.8
20200702055334 68 126 0.0 1.0 0.00 0.00 0.00 26 1015.9
20200702054712 69 126 1.0 5.0 0.00 0.00 0.00 25 1015.9
20200702054056 69 160 0.0 5.0 0.00 0.00 0.00 26 1015.9
20200702053455 69 199 0.0 3.0 0.00 0.00 0.00 25 1015.9
20200702052842 69 167 0.0 3.0 0.00 0.00 0.00 24 1015.5
20200702052220 70 167 0.0 3.0 0.00 0.00 0.00 24 1015.5
20200702051607 70 165 0.0 4.0 0.00 0.00 0.00 23 1015.5
20200702050957 70 166 0.0 4.0 0.00 0.00 0.00 23 1016.2
20200702050402 70 153 1.0 6.0 0.00 0.00 0.00 23 1016.2
20200702045755 70 167 1.0 6.0 0.00 0.00 0.00 23 1015.6
20200702045144 71 161 1.0 6.0 0.00 0.00 0.00 23 1015.6
20200702044525 71 192 1.0 5.0 0.00 0.00 0.00 23 1015.6
20200702043921 71 186 1.0 5.0 0.00 0.00 0.00 22 1015.3
20200702043313 72 186 1.0 7.0 0.00 0.00 0.00 22 1015.3
20200702042718 72 200 3.0 7.0 0.00 0.00 0.00 22 1014.9
20200702042127 73 240 4.0 7.0 0.00 0.00 0.00 22 1014.9
20200702041508 73 244 2.0 5.0 0.00 0.00 0.00 22 1014.9
20200702040919 73 198 1.0 5.0 0.00 0.00 0.00 22 1015.4
20200702040310 73 234 1.0 5.0 0.00 0.00 0.00 22 1015.4
20200702035710 73 148 1.0 4.0 0.00 0.00 0.00 22 1014.8
20200702035108 73 167 1.0 4.0 0.00 0.00 0.00 22 1014.8
20200702034456 73 165 1.0 5.0 0.00 0.00 0.00 22 1014.8
20200702033846 73 175 0.0 5.0 0.00 0.00 0.00 22 1014.2
20200702033246 74 214 2.0 10.0 0.00 0.00 0.00 22 1014.2
20200702032626 74 192 4.0 10.0 0.00 0.00 0.00 22 1013.6
20200702032028 74 190 4.0 10.0 0.00 0.00 0.00 22 1013.6
20200702031430 74 144 3.0 8.0 0.00 0.00 0.00 23 1013.6
20200702030816 75 270 5.0 8.0 0.00 0.00 0.00 21 1014.4
20200702030154 75 324 4.0 8.0 0.00 0.00 0.00 20 1014.4
20200702025606 75 322 2.0 6.0 0.00 0.00 0.00 20 1013.9
20200702025006 76 65 0.0 3.0 0.00 0.00 0.00 20 1013.9
20200702024355 77 84 0.0 3.0 0.00 0.00 0.00 19 1013.6
20200702023810 77 100 0.0 5.0 0.00 0.00 0.00 19 1013.6
20200702023204 77 26 0.0 3.0 0.00 0.00 0.00 19 1013.6
20200702022553 78 26 0.0 3.0 0.00 0.00 0.00 19 1013.1
20200702021937 78 26 1.0 0.0 0.00 0.00 0.00 17 1013.1
20200702021347 78 22 1.0 5.0 0.00 0.00 0.00 18 1013.7
20200702020800 79 26 1.0 4.0 0.00 0.00 0.00 17 1013.7
20200702020157 79 113 1.0 9.0 0.00 0.00 0.00 17 1013.7
20200702015554 80 108 3.0 9.0 0.00 0.00 0.00 17 1013.1
20200702014936 80 88 4.0 9.0 0.00 0.00 0.00 16 1013.1
20200702014348 81 108 3.0 8.0 0.00 0.00 0.00 16 1012.3
20200702013729 82 97 2.0 7.0 0.00 0.00 0.00 17 1012.3
20200702013153 82 51 4.0 11.0 0.00 0.00 0.00 16 1012.3
20200702012520 82 355 5.0 11.0 0.00 0.00 0.00 17 1012.3
20200702011916 82 17 5.0 11.0 0.00 0.00 0.00 16 1012.3
20200702011325 83 26 5.0 11.0 0.00 0.00 0.00 16 1013.1
20200702010713 83 57 4.0 11.0 0.00 0.00 0.00 16 1013.1
20200702010106 83 23 4.0 8.0 0.00 0.00 0.00 13 1013.1
20200702005509 83 49 3.0 8.0 0.00 0.00 0.00 15 1013.0
20200702004908 83 69 4.0 10.0 0.00 0.00 0.00 15 1013.0
20200702004319 83 102 4.0 10.0 0.00 0.00 0.00 15 1013.1
20200702003702 82 55 4.0 10.0 0.00 0.00 0.00 16 1013.1
20200702003039 83 109 4.0 9.0 0.00 0.00 0.00 15 1013.1
20200702002429 83 96 4.0 9.0 0.00 0.00 0.00 15 1013.1
20200702001814 83 80 3.0 8.0 0.00 0.00 0.00 15 1013.1
20200702001158 83 113 4.0 12.0 0.00 0.00 0.00 15 1013.2
20200702000547 83 87 5.0 12.0 0.00 0.00 0.00 15 1013.2
20200701235954 83 93 6.0 12.0 0.00 0.00 0.00 15 1013.2
20200701235332 83 104 6.0 11.0 0.00 0.00 0.00 15 1013.3
20200701234743 83 92 4.0 15.0 0.00 0.00 0.00 15 1013.3
20200701234158 83 93 5.0 15.0 0.00 0.00 0.00 16 1014.0
20200701233539 82 126 8.0 15.0 0.00 0.00 0.00 15 1014.0
20200701232949 82 132 8.0 15.0 0.00 0.00 0.00 15 1014.0
20200701232330 82 130 7.0 14.0 0.00 0.00 0.00 15 1013.6
20200701231740 83 124 7.0 20.0 0.00 0.00 0.00 15 1013.6
20200701231132 83 139 8.0 20.0 0.00 0.00 0.00 15 1013.7
20200701230517 82 158 9.0 20.0 0.00 0.00 0.00 15 1013.7
20200701225917 83 140 9.0 18.0 0.00 0.00 0.00 15 1013.7
20200701225311 83 134 6.0 15.0 0.00 0.00 0.00 14 1013.5
20200701224713 83 72 6.0 11.0 0.00 0.00 0.00 14 1013.5
20200701224055 83 110 6.0 12.0 0.00 0.00 0.00 15 1014.1
20200701223507 83 85 6.0 12.0 0.00 0.00 0.00 16 1014.1
20200701222847 82 63 6.0 12.0 0.00 0.00 0.00 15 1014.2
20200701222253 82 95 7.0 12.0 0.00 0.00 0.00 15 1014.2
20200701221651 82 105 6.0 12.0 0.00 0.00 0.00 15 1014.2
20200701221053 82 74 4.0 12.0 0.00 0.00 0.00 15 1014.7
20200701220456 82 124 6.0 12.0 0.00 0.00 0.00 15 1014.7
20200701215842 82 113 6.0 12.0 0.00 0.00 0.00 14 1014.8
20200701215234 82 96 5.0 14.0 0.00 0.00 0.00 15 1014.8
20200701214618 81 105 7.0 14.0 0.00 0.00 0.00 14 1014.8
20200701214012 81 126 6.0 21.0 0.00 0.00 0.00 15 1015.0
20200701213407 81 64 8.0 21.0 0.00 0.00 0.00 15 1015.0
20200701212810 81 115 9.0 21.0 0.00 0.00 0.00 15 1015.2
20200701212157 80 127 8.0 15.0 0.00 0.00 0.00 15 1015.2
20200701211538 81 113 8.0 15.0 0.00 0.00 0.00 15 1015.2
20200701210923 80 113 7.0 20.0 0.00 0.00 0.00 16 1015.4
20200701210314 80 116 7.0 20.0 0.00 0.00 0.00 16 1015.4
20200701205649 80 122 9.0 20.0 0.00 0.00 0.00 15 1015.4
20200701205031 81 153 8.0 20.0 0.00 0.00 0.00 16 1015.4
20200701204436 81 115 9.0 20.0 0.00 0.00 0.00 16 1015.4
20200701203826 81 156 9.0 20.0 0.00 0.00 0.00 16 1015.4
20200701203236 81 139 8.0 17.0 0.00 0.00 0.00 16 1015.4
20200701202628 81 163 3.0 17.0 0.00 0.00 0.00 16 1016.2
20200701202032 80 80 6.0 17.0 0.00 0.00 0.00 15 1016.2
20200701201410 79 127 9.0 17.0 0.00 0.00 0.00 16 1015.6
20200701200811 80 141 7.0 17.0 0.00 0.00 0.00 16 1015.6
20200701200202 80 108 6.0 17.0 0.00 0.00 0.00 16 1015.6
20200701195545 80 121 5.0 14.0 0.00 0.00 0.00 16 1015.6
20200701194938 80 96 6.0 14.0 0.00 0.00 0.00 14 1015.6
20200701194330 79 97 8.0 14.0 0.00 0.00 0.00 16 1015.6
20200701193738 79 126 7.0 14.0 0.00 0.00 0.00 16 1015.6
20200701193117 80 143 6.0 13.0 0.00 0.00 0.00 17 1015.6
20200701192454 79 131 6.0 14.0 0.00 0.00 0.00 16 1015.7
20200701191833 79 132 8.0 14.0 0.00 0.00 0.00 17 1015.7
20200701191216 79 186 9.0 15.0 0.00 0.00 0.00 17 1015.4
20200701190610 79 132 8.0 15.0 0.00 0.00 0.00 17 1015.4
20200701190018 79 114 6.0 17.0 0.00 0.00 0.00 17 1015.4
20200701185355 79 68 6.0 19.0 0.00 0.00 0.00 17 1015.6
20200701184738 79 166 6.0 19.0 0.00 0.00 0.00 16 1015.6
20200701184115 79 94 8.0 19.0 0.00 0.00 0.00 18 1015.7
20200701183511 79 126 5.0 15.0 0.00 0.00 0.00 18 1015.7
20200701182907 79 162 5.0 14.0 0.00 0.00 0.00 16 1016.2
20200701182335 78 99 7.0 14.0 0.00 0.00 0.00 16 1016.2
20200701181651 78 98 7.0 13.0 0.00 0.00 0.00 15 1016.2
20200701181051 78 111 7.0 13.0 0.00 0.00 0.00 16 1015.9
20200701180439 78 120 7.0 13.0 0.00 0.00 0.00 14 1015.9
20200701175837 79 86 5.0 13.0 0.00 0.00 0.00 16 1016.0
20200701175223 78 85 6.0 13.0 0.00 0.00 0.00 16 1016.0
20200701174625 77 98 6.0 13.0 0.00 0.00 0.00 16 1016.0
20200701174032 77 102 7.0 19.0 0.00 0.00 0.00 17 1016.3
20200701173426 76 126 9.0 19.0 0.00 0.00 0.00 18 1016.3
20200701172823 76 94 9.0 19.0 0.00 0.00 0.00 19 1016.4
20200701172222 76 129 10.0 19.0 0.00 0.00 0.00 19 1016.4
20200701171601 76 130 8.0 19.0 0.00 0.00 0.00 20 1016.4
20200701170943 76 105 8.0 17.0 0.00 0.00 0.00 22 1016.4
20200701170349 75 135 9.0 17.0 0.00 0.00 0.00 22 1016.4
20200701165748 75 88 8.0 17.0 0.00 0.00 0.00 22 1016.6
20200701165130 75 95 8.0 17.0 0.00 0.00 0.00 19 1016.6
20200701164533 75 130 8.0 18.0 0.00 0.00 0.00 20 1016.6